Time;durP1;ratioP1;P1;durP2;ratioP2;P2;SDS_P1;SDS_P2;PMS_P1;PMS_P2;Temp;Humidity;BMP_temperature;BMP_pressure;BME280_temperature;BME280_humidity;BME280_pressure;Samples;Min_cycle;Max_cycle;Signal;HPM_P1;HPM_P2
2021/12/12 00:00:49;;;;;;;62.10;31.45;;;3.30;99.90;;;;;;5100596;28;20079;-49
2021/12/12 00:03:31;;;;;;;62.28;33.28;;;3.30;99.90;;;;;;5100089;28;20074;-48
2021/12/12 00:06:04;;;;;;;69.45;33.38;;;3.30;99.90;;;;;;5100089;28;20052;-49
2021/12/12 00:08:30;;;;;;;69.43;34.53;;;3.30;99.90;;;;;;5100504;28;20096;-52
2021/12/12 00:11:03;;;;;;;64.45;32.13;;;3.30;99.90;;;;;;5098394;28;20044;-52
2021/12/12 00:13:39;;;;;;;67.28;33.67;;;3.50;99.90;;;;;;5100040;28;20071;-52
2021/12/12 00:16:06;;;;;;;71.85;33.83;;;3.30;99.90;;;;;;5099909;28;20109;-53
2021/12/12 00:18:32;;;;;;;69.35;33.47;;;3.40;99.90;;;;;;5099737;28;20141;-52
2021/12/12 00:20:58;;;;;;;69.20;34.13;;;3.40;99.90;;;;;;5100417;28;20032;-52
2021/12/12 00:23:24;;;;;;;67.75;33.28;;;3.40;99.90;;;;;;5098166;28;20269;-52
2021/12/12 00:25:52;;;;;;;60.50;31.85;;;3.40;99.90;;;;;;5100037;28;20136;-50
2021/12/12 00:28:21;;;;;;;66.95;34.25;;;3.40;99.90;;;;;;5099301;28;20619;-49
2021/12/12 00:30:55;;;;;;;72.50;34.13;;;3.40;99.90;;;;;;5099922;28;20048;-49
2021/12/12 00:33:21;;;;;;;60.42;33.33;;;3.40;99.90;;;;;;5099585;28;20060;-50
2021/12/12 00:35:49;;;;;;;61.75;32.05;;;3.40;99.90;;;;;;5099645;28;20036;-51
2021/12/12 00:38:25;;;;;;;56.90;30.60;;;3.50;99.90;;;;;;5099793;28;20048;-49
2021/12/12 00:40:55;;;;;;;63.10;32.28;;;3.50;99.90;;;;;;5099377;28;20513;-51
2021/12/12 00:43:27;;;;;;;60.60;31.75;;;3.50;99.90;;;;;;5099216;28;20080;-50
2021/12/12 00:45:56;;;;;;;65.32;32.22;;;3.50;99.90;;;;;;5099046;28;20095;-52
2021/12/12 00:48:24;;;;;;;60.53;29.50;;;3.50;99.90;;;;;;5099393;28;20040;-50
2021/12/12 00:50:50;;;;;;;58.40;32.15;;;3.50;99.90;;;;;;5094632;28;20099;-51
2021/12/12 00:53:20;;;;;;;66.78;31.40;;;3.60;99.90;;;;;;5077525;28;20056;-51
2021/12/12 00:55:47;;;;;;;62.30;31.33;;;3.60;99.90;;;;;;5079368;28;20117;-50
2021/12/12 00:58:16;;;;;;;59.13;33.85;;;3.60;99.90;;;;;;5078561;28;20048;-48
2021/12/12 01:00:51;;;;;;;75.82;33.17;;;3.60;99.90;;;;;;5078986;28;20070;-50
2021/12/12 01:03:26;;;;;;;63.47;31.05;;;3.60;99.90;;;;;;5078633;28;20033;-50
2021/12/12 01:05:53;;;;;;;57.90;31.95;;;3.60;99.90;;;;;;5079023;28;20079;-51
2021/12/12 01:08:20;;;;;;;60.65;30.45;;;3.60;99.90;;;;;;5078977;28;20090;-50
2021/12/12 01:10:59;;;;;;;50.38;28.58;;;3.60;99.90;;;;;;5078469;28;20080;-50
2021/12/12 01:13:25;;;;;;;58.15;30.90;;;3.60;99.90;;;;;;5078566;28;20049;-49
2021/12/12 01:16:09;;;;;;;58.92;31.10;;;3.60;99.90;;;;;;5077043;28;20060;-51
2021/12/12 01:18:39;;;;;;;55.60;29.08;;;3.70;99.90;;;;;;5078438;28;20044;-50
2021/12/12 01:21:13;;;;;;;59.75;29.73;;;3.60;99.90;;;;;;5078780;28;20430;-49
2021/12/12 01:23:47;;;;;;;54.10;27.88;;;3.70;99.90;;;;;;5078247;28;20105;-49
2021/12/12 01:26:13;;;;;;;62.30;30.35;;;3.70;99.90;;;;;;5078865;28;20916;-50
2021/12/12 01:28:43;;;;;;;64.45;31.27;;;3.60;99.90;;;;;;5078175;28;20048;-51
2021/12/12 01:31:13;;;;;;;63.20;30.67;;;3.70;99.90;;;;;;5078655;28;20051;-49
2021/12/12 01:33:39;;;;;;;66.20;32.10;;;3.70;99.90;;;;;;5078858;28;20494;-50
2021/12/12 01:36:07;;;;;;;63.47;32.28;;;3.70;99.90;;;;;;5078433;28;20068;-51
2021/12/12 01:38:56;;;;;;;59.60;29.73;;;3.70;99.90;;;;;;5078586;28;20044;-50
2021/12/12 01:41:40;;;;;;;64.75;31.90;;;3.70;99.90;;;;;;5077977;28;20438;-49
2021/12/12 01:44:19;;;;;;;71.93;31.45;;;3.70;99.90;;;;;;5078025;28;20040;-51
2021/12/12 01:46:57;;;;;;;65.68;32.35;;;3.80;99.90;;;;;;5078792;28;20089;-50
2021/12/12 01:49:25;;;;;;;69.40;33.45;;;3.80;99.90;;;;;;5077838;28;20431;-55
2021/12/12 01:51:54;;;;;;;72.25;33.35;;;3.80;99.90;;;;;;5091688;28;20040;-54
2021/12/12 01:54:26;;;;;;;70.35;33.45;;;3.70;99.90;;;;;;5097954;28;20408;-50
2021/12/12 01:56:59;;;;;;;64.75;32.20;;;3.80;99.90;;;;;;5098771;28;20085;-49
2021/12/12 01:59:29;;;;;;;67.18;32.83;;;3.70;99.90;;;;;;5098770;28;20036;-50
2021/12/12 02:02:12;;;;;;;65.90;32.67;;;3.80;99.90;;;;;;5098288;28;20123;-48
2021/12/12 02:04:50;;;;;;;70.88;31.90;;;3.80;99.90;;;;;;5097271;28;20070;-51
2021/12/12 02:07:21;;;;;;;69.35;31.13;;;3.80;99.90;;;;;;5097841;28;20079;-52
2021/12/12 02:09:48;;;;;;;70.18;32.15;;;3.80;99.90;;;;;;5097209;28;20570;-52
2021/12/12 02:12:15;;;;;;;74.05;32.63;;;3.80;99.90;;;;;;5098615;28;20043;-52
2021/12/12 02:14:42;;;;;;;66.93;30.80;;;3.90;99.90;;;;;;5097803;28;20036;-51
2021/12/12 02:17:29;;;;;;;67.03;33.17;;;3.90;99.90;;;;;;5098713;28;20462;-51
2021/12/12 02:20:09;;;;;;;61.60;31.02;;;3.90;99.90;;;;;;5097635;28;20048;-53
2021/12/12 02:22:59;;;;;;;65.90;31.45;;;4.00;99.90;;;;;;5098161;28;20040;-52
2021/12/12 02:36:31;;;;;;;62.72;30.08;;;4.10;99.90;;;;;;5101712;28;20072;-49
2021/12/12 02:38:58;;;;;;;65.50;31.13;;;4.00;99.90;;;;;;5102126;28;20048;-50
2021/12/12 02:41:26;;;;;;;69.82;31.08;;;4.10;99.90;;;;;;5101490;28;20044;-49
2021/12/12 02:44:00;;;;;;;64.30;31.25;;;4.10;99.90;;;;;;5101750;28;20067;-53
2021/12/12 02:46:33;;;;;;;63.47;30.30;;;4.10;99.90;;;;;;5101812;28;20048;-50
2021/12/12 02:49:08;;;;;;;66.10;29.38;;;4.10;99.90;;;;;;5101451;28;20055;-51
2021/12/12 02:51:38;;;;;;;61.75;30.48;;;4.10;99.90;;;;;;5090958;28;20584;-53
2021/12/12 02:54:05;;;;;;;66.70;29.17;;;4.10;99.90;;;;;;5080924;28;20055;-53
2021/12/12 02:56:38;;;;;;;73.65;29.98;;;4.20;99.90;;;;;;5081376;28;20051;-51
2021/12/12 02:59:07;;;;;;;55.00;27.42;;;4.20;99.90;;;;;;5081205;28;20530;-52
2021/12/12 03:01:43;;;;;;;58.08;28.15;;;4.20;99.90;;;;;;5081039;28;20044;-50
2021/12/12 03:04:09;;;;;;;67.07;30.17;;;4.60;99.90;;;;;;5081593;28;20044;-50
2021/12/12 03:06:38;;;;;;;60.17;28.23;;;4.30;99.90;;;;;;5080734;28;20508;-51
2021/12/12 03:09:21;;;;;;;59.80;27.67;;;4.30;99.90;;;;;;5081247;28;20063;-50
2021/12/12 03:11:50;;;;;;;56.55;27.55;;;4.30;99.90;;;;;;5081030;28;20056;-53
2021/12/12 03:14:17;;;;;;;58.58;28.45;;;4.40;99.90;;;;;;5080659;28;20076;-53
2021/12/12 03:16:44;;;;;;;61.92;26.75;;;4.40;99.90;;;;;;5081643;28;20048;-50
2021/12/12 03:19:10;;;;;;;70.63;31.73;;;4.40;99.90;;;;;;5080623;28;20041;-51
2021/12/12 03:21:42;;;;;;;62.85;28.63;;;4.40;99.90;;;;;;5081020;28;20040;-50
2021/12/12 03:24:25;;;;;;;60.55;28.17;;;4.40;99.90;;;;;;5062470;28;20104;-53
2021/12/12 03:26:55;;;;;;;58.22;27.20;;;4.40;99.90;;;;;;5080774;28;20084;-54
2021/12/12 03:29:21;;;;;;;61.10;28.27;;;4.40;99.90;;;;;;5079673;28;20056;-53
2021/12/12 03:31:52;;;;;;;65.63;28.70;;;4.40;99.90;;;;;;5080670;28;20104;-52
2021/12/12 03:34:22;;;;;;;57.63;26.17;;;4.40;99.90;;;;;;5081015;28;20036;-52
2021/12/12 03:36:50;;;;;;;59.55;27.05;;;4.40;99.90;;;;;;5080021;28;20068;-50
2021/12/12 03:39:22;;;;;;;61.65;27.98;;;4.50;99.90;;;;;;5080595;28;20051;-53
2021/12/12 03:41:49;;;;;;;49.97;26.38;;;4.50;99.90;;;;;;5080476;28;20518;-53
2021/12/12 03:44:21;;;;;;;49.10;25.98;;;4.50;99.90;;;;;;5079787;28;20041;-52
2021/12/12 03:46:50;;;;;;;49.45;24.10;;;4.50;99.90;;;;;;5079342;28;20040;-50
2021/12/12 03:49:17;;;;;;;52.58;24.63;;;4.50;99.90;;;;;;5080119;28;20080;-51
2021/12/12 03:51:44;;;;;;;54.53;25.90;;;4.50;99.90;;;;;;5092602;28;20096;-51
2021/12/12 03:54:10;;;;;;;47.15;25.42;;;4.60;99.90;;;;;;5100246;28;20382;-51
2021/12/12 03:56:38;;;;;;;51.90;23.90;;;4.60;99.90;;;;;;5100455;28;20058;-55
2021/12/12 03:59:04;;;;;;;48.88;24.08;;;4.60;99.90;;;;;;5100247;28;20052;-53
2021/12/12 04:01:37;;;;;;;45.72;23.75;;;4.60;99.90;;;;;;5100134;28;20070;-51
2021/12/12 04:04:13;;;;;;;45.85;24.23;;;4.60;99.90;;;;;;5100651;28;20111;-54
2021/12/12 04:06:40;;;;;;;39.75;21.67;;;4.60;99.90;;;;;;5099797;28;20056;-52
2021/12/12 04:09:08;;;;;;;43.95;22.70;;;4.60;99.90;;;;;;5100419;28;20039;-50
2021/12/12 04:11:59;;;;;;;44.80;24.75;;;4.60;99.90;;;;;;5100099;28;20177;-50
2021/12/12 04:14:25;;;;;;;47.40;23.52;;;4.60;99.90;;;;;;5099876;28;20472;-53
2021/12/12 04:17:01;;;;;;;47.80;23.40;;;4.60;99.90;;;;;;5099280;28;20047;-52
2021/12/12 04:19:27;;;;;;;40.58;21.55;;;4.60;99.90;;;;;;5099629;28;20500;-51
2021/12/12 04:21:53;;;;;;;38.30;21.35;;;4.60;99.90;;;;;;5100258;28;20506;-53
2021/12/12 04:24:41;;;;;;;42.80;22.00;;;4.60;99.90;;;;;;5099598;28;20474;-53
2021/12/12 04:27:09;;;;;;;38.65;21.58;;;4.60;99.90;;;;;;5099543;28;20104;-50
2021/12/12 04:29:42;;;;;;;41.45;22.05;;;4.60;99.90;;;;;;5100266;28;20036;-51
2021/12/12 04:32:18;;;;;;;41.65;20.45;;;4.60;99.90;;;;;;5099630;28;20031;-51
2021/12/12 04:34:49;;;;;;;38.95;20.52;;;4.60;99.90;;;;;;5099864;28;20464;-51
2021/12/12 04:37:16;;;;;;;43.03;24.10;;;4.60;99.90;;;;;;5099358;28;20071;-53
2021/12/12 04:39:48;;;;;;;42.30;21.98;;;4.60;99.90;;;;;;5099890;28;20044;-51
2021/12/12 04:42:18;;;;;;;38.95;21.02;;;4.60;99.90;;;;;;5099890;28;20058;-51
2021/12/12 04:44:49;;;;;;;36.45;20.23;;;4.60;99.90;;;;;;5080862;28;20055;-50
2021/12/12 04:50:18;;;;;;;36.03;20.30;;;4.60;99.90;;;;;;5099300;28;20070;-54
2021/12/12 04:52:50;;;;;;;35.03;19.52;;;4.60;99.90;;;;;;5059078;28;20596;-51
2021/12/12 04:55:49;;;;;;;36.65;21.00;;;4.60;99.90;;;;;;5059527;28;20041;-53
2021/12/12 04:58:28;;;;;;;33.25;17.95;;;4.60;99.90;;;;;;5055907;28;20052;-53
2021/12/12 05:01:12;;;;;;;35.58;19.00;;;4.60;99.90;;;;;;5059088;28;20049;-53
2021/12/12 05:03:47;;;;;;;33.80;18.08;;;4.60;99.90;;;;;;5059104;28;20048;-53
2021/12/12 05:06:26;;;;;;;32.97;18.00;;;4.60;99.90;;;;;;5057250;28;20045;-54
2021/12/12 05:08:57;;;;;;;31.48;17.50;;;4.60;99.90;;;;;;5059210;28;20056;-53
2021/12/12 05:11:33;;;;;;;34.80;19.13;;;4.60;99.90;;;;;;5058313;28;20060;-52
2021/12/12 05:14:07;;;;;;;30.25;16.77;;;4.70;99.90;;;;;;5058558;28;20326;-53
2021/12/12 05:16:37;;;;;;;29.20;17.77;;;4.70;99.90;;;;;;5059174;28;20039;-53
2021/12/12 05:19:15;;;;;;;29.42;18.40;;;4.70;99.90;;;;;;5056941;28;20065;-52
2021/12/12 05:21:51;;;;;;;30.75;17.40;;;4.70;99.90;;;;;;5058953;28;20048;-51
2021/12/12 05:24:19;;;;;;;27.23;17.02;;;4.70;99.90;;;;;;5056946;28;20060;-51
2021/12/12 05:26:54;;;;;;;32.58;17.13;;;4.70;99.90;;;;;;5057291;28;20041;-53
2021/12/12 05:29:25;;;;;;;32.47;17.63;;;4.70;99.90;;;;;;5058803;28;20056;-54
2021/12/12 05:31:54;;;;;;;33.38;18.75;;;4.80;99.90;;;;;;5058191;28;20536;-53
2021/12/12 05:34:23;;;;;;;31.00;18.60;;;4.90;99.90;;;;;;5058630;28;20048;-52
2021/12/12 05:36:52;;;;;;;34.88;18.27;;;4.80;99.90;;;;;;5058120;28;20475;-54
2021/12/12 05:39:20;;;;;;;31.60;19.27;;;4.90;99.90;;;;;;5058337;28;20044;-52
2021/12/12 05:41:47;;;;;;;28.63;18.85;;;4.90;99.90;;;;;;5058441;28;20056;-54
2021/12/12 05:44:14;;;;;;;36.50;20.02;;;5.00;99.90;;;;;;5057863;28;20045;-52
2021/12/12 05:46:40;;;;;;;35.90;18.77;;;5.00;99.90;;;;;;5058814;28;20056;-50
2021/12/12 05:49:07;;;;;;;41.60;20.25;;;5.00;99.90;;;;;;5057675;28;20033;-53
2021/12/12 05:51:34;;;;;;;31.73;19.13;;;5.00;99.90;;;;;;5079783;28;20069;-50
2021/12/12 05:54:00;;;;;;;38.10;21.55;;;4.90;99.90;;;;;;5097892;28;20044;-54
2021/12/12 05:56:29;;;;;;;36.25;19.23;;;5.00;99.90;;;;;;5097221;28;20089;-53
2021/12/12 05:58:57;;;;;;;35.60;19.52;;;5.00;99.90;;;;;;5098200;28;20051;-50
2021/12/12 06:01:23;;;;;;;36.53;19.27;;;5.00;99.90;;;;;;5098430;28;20115;-51
2021/12/12 06:03:50;;;;;;;40.63;21.33;;;5.10;99.90;;;;;;5063716;28;20135;-49
2021/12/12 06:06:20;;;;;;;36.10;20.30;;;5.20;99.90;;;;;;5097913;28;20048;-50
2021/12/12 06:08:48;;;;;;;42.85;20.55;;;5.10;99.90;;;;;;5101614;28;20420;-50
2021/12/12 06:11:17;;;;;;;41.13;21.00;;;5.10;99.90;;;;;;5101979;28;20412;-53
2021/12/12 06:13:44;;;;;;;43.78;21.23;;;5.10;99.90;;;;;;5100961;28;20120;-51
2021/12/12 06:16:18;;;;;;;43.20;20.58;;;5.20;99.90;;;;;;5101146;28;20051;-49
2021/12/12 06:18:47;;;;;;;38.40;18.73;;;5.20;99.90;;;;;;5102095;28;20039;-52
2021/12/12 06:21:13;;;;;;;42.20;20.65;;;5.20;99.90;;;;;;5102794;28;20071;-51
2021/12/12 06:23:39;;;;;;;39.03;19.90;;;5.20;99.90;;;;;;5101964;28;20066;-51
2021/12/12 06:26:05;;;;;;;39.35;20.50;;;5.20;99.90;;;;;;5102376;28;20044;-53
2021/12/12 06:28:35;;;;;;;40.13;20.33;;;5.30;99.90;;;;;;5100200;28;20036;-51
2021/12/12 06:31:01;;;;;;;35.42;18.42;;;5.30;99.90;;;;;;5100900;28;20048;-52
2021/12/12 06:33:28;;;;;;;38.15;19.73;;;5.30;99.90;;;;;;5100932;28;20059;-51
2021/12/12 06:35:54;;;;;;;40.05;19.60;;;5.30;99.90;;;;;;5101869;28;20503;-52
2021/12/12 06:38:21;;;;;;;37.10;19.40;;;5.30;99.90;;;;;;5100897;28;20064;-53
2021/12/12 06:40:48;;;;;;;40.90;19.50;;;5.30;99.90;;;;;;5101632;28;20044;-53
2021/12/12 06:43:16;;;;;;;41.25;18.67;;;5.40;99.90;;;;;;5101793;28;20062;-51
2021/12/12 06:45:42;;;;;;;42.55;20.52;;;5.30;99.90;;;;;;5101428;28;20036;-52
2021/12/12 06:48:11;;;;;;;44.58;20.00;;;5.40;99.90;;;;;;5101751;28;20044;-54
2021/12/12 06:50:40;;;;;;;47.60;21.50;;;5.30;99.90;;;;;;5098571;28;20048;-52
2021/12/12 06:53:08;;;;;;;43.00;19.48;;;5.40;99.90;;;;;;5081389;28;20053;-52
2021/12/12 06:55:36;;;;;;;54.60;22.15;;;5.40;99.90;;;;;;5080367;28;20047;-49
2021/12/12 06:58:05;;;;;;;48.25;20.92;;;5.40;99.90;;;;;;5079664;28;20060;-49
2021/12/12 07:00:31;;;;;;;45.53;20.83;;;5.40;99.90;;;;;;5081126;28;20078;-51
2021/12/12 07:02:57;;;;;;;42.53;20.23;;;5.50;99.90;;;;;;5081063;28;20036;-51
2021/12/12 07:05:27;;;;;;;49.13;21.48;;;5.50;99.90;;;;;;5081268;28;20886;-51
2021/12/12 07:07:54;;;;;;;45.90;20.98;;;5.50;99.90;;;;;;5081425;28;20038;-49
2021/12/12 07:10:22;;;;;;;47.58;21.77;;;5.50;99.90;;;;;;5080819;28;20094;-49
2021/12/12 07:12:55;;;;;;;57.10;22.73;;;5.50;99.90;;;;;;5081202;28;20433;-53
2021/12/12 07:15:22;;;;;;;47.85;20.83;;;5.50;99.90;;;;;;5080668;28;20037;-51
2021/12/12 07:17:48;;;;;;;54.38;21.85;;;5.50;99.90;;;;;;5081110;28;20047;-52
2021/12/12 07:20:14;;;;;;;55.78;21.98;;;5.50;99.90;;;;;;5079778;28;20040;-52
2021/12/12 07:22:40;;;;;;;53.95;22.42;;;5.50;99.90;;;;;;5079622;28;20044;-50
2021/12/12 07:25:07;;;;;;;63.10;22.65;;;5.60;99.90;;;;;;5081406;28;20051;-52
2021/12/12 07:27:33;;;;;;;59.47;22.85;;;5.60;99.90;;;;;;5080725;28;20124;-52
2021/12/12 07:30:01;;;;;;;61.33;23.50;;;5.60;99.90;;;;;;5080994;28;20044;-49
2021/12/12 07:32:28;;;;;;;58.33;22.48;;;5.60;99.90;;;;;;5080375;28;20048;-53
2021/12/12 07:34:54;;;;;;;55.10;22.52;;;5.70;99.90;;;;;;5080771;28;20124;-53
2021/12/12 07:37:20;;;;;;;59.97;21.85;;;5.70;99.90;;;;;;5080554;28;20044;-52
2021/12/12 07:39:47;;;;;;;61.08;22.13;;;5.70;99.90;;;;;;5080393;28;20043;-51
2021/12/12 07:42:15;;;;;;;61.63;24.30;;;5.70;99.90;;;;;;5080831;28;20041;-51
2021/12/12 07:44:43;;;;;;;63.15;24.02;;;5.80;99.90;;;;;;5078759;28;20037;-51
2021/12/12 07:47:11;;;;;;;67.38;22.98;;;5.80;99.90;;;;;;5080775;28;20064;-50
2021/12/12 07:49:43;;;;;;;68.90;23.58;;;5.70;99.90;;;;;;5079695;28;20071;-49
2021/12/12 07:52:13;;;;;;;65.20;23.42;;;5.80;99.90;;;;;;5096475;28;20044;-52
2021/12/12 07:54:39;;;;;;;69.43;24.13;;;5.80;99.90;;;;;;5100370;28;20065;-51
2021/12/12 07:57:06;;;;;;;73.95;25.00;;;5.90;99.90;;;;;;5100184;28;20250;-50
2021/12/12 07:59:36;;;;;;;67.18;24.63;;;5.80;99.90;;;;;;5100879;28;20059;-51
2021/12/12 08:02:04;;;;;;;70.18;23.33;;;5.90;99.90;;;;;;5100119;28;20117;-52
2021/12/12 08:04:31;;;;;;;73.85;25.38;;;5.90;99.90;;;;;;5100565;28;20097;-50
2021/12/12 08:07:00;;;;;;;77.65;25.13;;;5.90;99.90;;;;;;5099749;28;20054;-48
2021/12/12 08:09:27;;;;;;;76.70;26.08;;;5.90;99.90;;;;;;5100128;28;20070;-51
2021/12/12 08:11:53;;;;;;;67.25;24.60;;;5.90;99.90;;;;;;5099097;28;20058;-52
2021/12/12 08:14:23;;;;;;;72.75;24.77;;;6.00;99.90;;;;;;5099930;28;20036;-49
2021/12/12 08:16:51;;;;;;;78.72;24.70;;;5.90;99.90;;;;;;5100454;28;20040;-51
2021/12/12 08:19:18;;;;;;;78.07;27.10;;;6.00;99.90;;;;;;5099547;28;20077;-53
2021/12/12 08:21:46;;;;;;;88.90;26.50;;;6.00;99.90;;;;;;5099855;28;20050;-51
2021/12/12 08:24:13;;;;;;;74.35;25.80;;;5.90;99.90;;;;;;5099621;28;20102;-51
2021/12/12 08:26:41;;;;;;;72.32;24.50;;;6.00;99.90;;;;;;5099896;28;20046;-51
2021/12/12 08:29:09;;;;;;;77.57;26.75;;;6.00;99.90;;;;;;5100137;28;20087;-52
2021/12/12 08:31:36;;;;;;;82.78;25.83;;;6.10;99.90;;;;;;5098115;28;20032;-51
2021/12/12 08:34:05;;;;;;;93.22;28.35;;;6.10;99.90;;;;;;5100014;28;20044;-53
2021/12/12 08:36:34;;;;;;;84.03;28.00;;;6.10;99.90;;;;;;5099342;28;20415;-49
2021/12/12 08:39:00;;;;;;;91.07;28.13;;;6.10;99.90;;;;;;5099801;28;20102;-50
2021/12/12 08:41:28;;;;;;;96.03;28.35;;;6.10;99.90;;;;;;5099127;28;20099;-54
2021/12/12 08:43:54;;;;;;;87.28;26.50;;;6.10;99.90;;;;;;5099513;28;20533;-52
2021/12/12 08:46:21;;;;;;;88.03;29.15;;;6.10;99.90;;;;;;5099641;28;20101;-51
2021/12/12 08:48:49;;;;;;;77.30;25.80;;;6.10;99.90;;;;;;5099370;28;20071;-50
2021/12/12 08:51:29;;;;;;;90.20;27.30;;;6.20;99.90;;;;;;5090949;28;20055;-54
2021/12/12 08:54:01;;;;;;;73.15;26.38;;;6.20;99.90;;;;;;5078579;28;20093;-53
2021/12/12 08:56:43;;;;;;;100.00;28.70;;;6.30;99.90;;;;;;5079172;28;20040;-53
2021/12/12 08:59:14;;;;;;;85.70;26.77;;;6.20;99.90;;;;;;5079370;28;20051;-52
2021/12/12 09:01:40;;;;;;;97.65;26.92;;;6.30;99.90;;;;;;5078803;28;20040;-53
2021/12/12 09:04:08;;;;;;;80.20;28.77;;;6.30;99.90;;;;;;5079363;28;20037;-51
2021/12/12 09:06:54;;;;;;;100.20;29.40;;;6.30;99.90;;;;;;5078361;28;20056;-49
2021/12/12 09:09:25;;;;;;;101.50;28.88;;;6.30;99.90;;;;;;5077699;28;20468;-51
2021/12/12 09:12:20;;;;;;;82.15;26.42;;;6.40;99.90;;;;;;5077362;28;20063;-52
2021/12/12 09:14:51;;;;;;;107.47;29.13;;;6.40;99.90;;;;;;5078194;28;20048;-53
2021/12/12 09:17:26;;;;;;;108.07;31.45;;;6.50;99.90;;;;;;5078757;28;20043;-52
2021/12/12 09:19:54;;;;;;;99.22;29.27;;;6.60;99.90;;;;;;5078227;28;20048;-52
2021/12/12 09:22:25;;;;;;;105.93;32.22;;;6.50;99.90;;;;;;5078319;28;20048;-53
2021/12/12 09:24:58;;;;;;;102.90;30.27;;;6.50;99.90;;;;;;5078635;28;20067;-52
2021/12/12 09:27:32;;;;;;;117.78;33.22;;;6.60;99.90;;;;;;5078504;28;20048;-52
2021/12/12 09:30:14;;;;;;;138.23;32.45;;;6.60;99.90;;;;;;5078563;28;20070;-50
2021/12/12 09:33:09;;;;;;;128.85;31.65;;;6.70;99.90;;;;;;5077950;28;20040;-50
2021/12/12 09:35:48;;;;;;;118.97;31.75;;;6.70;99.90;;;;;;5078487;28;20047;-51
2021/12/12 09:38:39;;;;;;;123.88;34.42;;;6.80;99.90;;;;;;5078733;28;20078;-52
2021/12/12 09:41:23;;;;;;;151.50;36.15;;;6.90;99.90;;;;;;5077924;28;20048;-51
2021/12/12 09:44:22;;;;;;;130.55;33.63;;;6.90;99.90;;;;;;5059676;28;20036;-53
2021/12/12 09:47:11;;;;;;;123.90;32.50;;;6.90;99.90;;;;;;5078517;28;20075;-52
2021/12/12 09:52:35;;;;;;;143.40;34.08;;;7.00;99.90;;;;;;5096879;28;20125;-52
2021/12/12 09:55:07;;;;;;;146.43;36.17;;;7.00;99.90;;;;;;5098913;28;20047;-51
2021/12/12 09:57:59;;;;;;;143.27;34.25;;;7.10;99.90;;;;;;5096496;28;20052;-50
2021/12/12 10:00:28;;;;;;;137.25;34.70;;;7.10;99.90;;;;;;5080293;28;20069;-53
2021/12/12 10:03:10;;;;;;;131.80;35.03;;;7.20;99.90;;;;;;5098057;28;20040;-50
2021/12/12 10:05:54;;;;;;;118.22;32.47;;;7.20;99.90;;;;;;5098389;28;20040;-53
2021/12/12 10:08:25;;;;;;;122.60;32.05;;;7.20;99.90;;;;;;5098346;28;20051;-53
2021/12/12 10:11:30;;;;;;;124.15;31.92;;;7.30;99.90;;;;;;5098004;28;20048;-53
2021/12/12 10:14:45;;;;;;;103.90;29.75;;;7.30;99.90;;;;;;5098008;28;20055;-51
2021/12/12 10:17:31;;;;;;;129.77;32.08;;;7.30;99.90;;;;;;5098337;28;20044;-54
2021/12/12 10:20:10;;;;;;;121.13;35.03;;;7.40;99.90;;;;;;5097897;28;20193;-51
2021/12/12 10:22:39;;;;;;;119.97;32.95;;;7.50;99.90;;;;;;5097790;28;20076;-54
2021/12/12 10:25:10;;;;;;;124.35;33.03;;;7.50;99.90;;;;;;5098466;28;20136;-53
2021/12/12 10:28:01;;;;;;;120.47;33.55;;;7.50;99.90;;;;;;5097490;28;20048;-53
2021/12/12 10:30:44;;;;;;;125.18;32.10;;;7.50;99.90;;;;;;5098364;28;20072;-51
2021/12/12 10:33:32;;;;;;;113.78;29.80;;;7.60;99.90;;;;;;5097739;28;20059;-52
2021/12/12 10:36:11;;;;;;;115.57;31.33;;;7.60;99.90;;;;;;5097798;28;20173;-50
2021/12/12 10:39:20;;;;;;;120.50;31.63;;;7.60;99.90;;;;;;5096740;28;20056;-54
2021/12/12 10:41:54;;;;;;;108.70;29.75;;;7.70;99.90;;;;;;5090465;28;20062;-53
2021/12/12 10:44:28;;;;;;;118.35;32.53;;;7.70;99.90;;;;;;5097744;28;20036;-54
2021/12/12 10:47:01;;;;;;;117.63;29.48;;;7.70;99.90;;;;;;5098183;28;20080;-53
2021/12/12 10:49:56;;;;;;;101.22;27.98;;;7.70;99.90;;;;;;5097296;28;20168;-53
2021/12/12 10:52:44;;;;;;;105.22;32.40;;;7.70;99.90;;;;;;5080066;28;20048;-52
2021/12/12 10:55:21;;;;;;;103.88;28.02;;;7.90;99.90;;;;;;5080109;28;20052;-50
2021/12/12 10:57:57;;;;;;;103.85;29.42;;;8.30;99.90;;;;;;5080665;28;20075;-49
2021/12/12 11:00:27;;;;;;;116.97;29.30;;;7.90;99.90;;;;;;5081296;28;20071;-52
2021/12/12 11:03:07;;;;;;;115.30;30.35;;;7.90;99.90;;;;;;5081025;28;20037;-51
2021/12/12 11:05:39;;;;;;;90.63;28.45;;;7.90;99.90;;;;;;5081106;28;20051;-52
2021/12/12 11:08:24;;;;;;;;;;;8.00;99.90;;;;;;5081892;28;20060;-53
2021/12/12 11:10:52;;;;;;;104.93;27.30;;;7.90;99.90;;;;;;5080730;28;20304;-52
2021/12/12 11:13:49;;;;;;;104.45;28.17;;;8.00;99.90;;;;;;5080982;28;20066;-53
2021/12/12 11:16:26;;;;;;;102.22;26.08;;;8.00;99.90;;;;;;5008887;28;20110;-53
2021/12/12 11:19:07;;;;;;;94.40;26.23;;;8.00;99.90;;;;;;5080434;28;20066;-52
2021/12/12 11:21:49;;;;;;;96.97;25.20;;;8.10;99.90;;;;;;5081179;28;20415;-50
2021/12/12 11:24:39;;;;;;;87.45;25.50;;;8.10;99.90;;;;;;5080688;28;20593;-53
2021/12/12 11:27:28;;;;;;;85.95;24.02;;;8.10;99.90;;;;;;5080650;28;20104;-53
2021/12/12 11:30:00;;;;;;;92.97;25.88;;;8.20;99.90;;;;;;5080827;28;20037;-52
2021/12/12 11:32:29;;;;;;;77.93;24.75;;;8.30;99.90;;;;;;5079140;28;20075;-53
2021/12/12 11:34:57;;;;;;;73.97;23.50;;;8.30;99.90;;;;;;5080674;28;20044;-51
2021/12/12 11:37:29;;;;;;;81.82;23.92;;;8.40;99.90;;;;;;5080630;28;20054;-53
2021/12/12 11:40:32;;;;;;;68.90;21.67;;;8.40;99.90;;;;;;5080445;28;20044;-54
2021/12/12 11:43:10;;;;;;;;;;;8.60;99.90;;;;;;5081024;28;20148;-53
2021/12/12 11:45:42;;;;;;;57.05;20.83;;;8.60;99.90;;;;;;5080102;28;19986;-50
2021/12/12 11:48:18;;;;;;;63.33;22.05;;;8.60;99.90;;;;;;5080380;28;20052;-52
2021/12/12 11:51:11;;;;;;;69.63;23.15;;;8.70;99.90;;;;;;5084902;28;20112;-53
2021/12/12 11:53:40;;;;;;;;;;;8.60;99.90;;;;;;5100909;28;20154;-52
2021/12/12 11:56:12;;;;;;;52.80;19.23;;;8.70;99.90;;;;;;5100656;28;19965;-53
2021/12/12 11:58:56;;;;;;;;;;;8.70;99.90;;;;;;5100850;28;20067;-53
2021/12/12 12:01:40;;;;;;;51.28;17.52;;;8.70;99.90;;;;;;5100241;28;19930;-52
2021/12/12 12:04:27;;;;;;;51.85;19.60;;;8.80;99.90;;;;;;5100721;28;20102;-52
2021/12/12 12:07:24;;;;;;;48.15;18.48;;;8.80;99.90;;;;;;5099533;28;20066;-53
2021/12/12 12:10:03;;;;;;;56.53;18.05;;;9.00;99.90;;;;;;5100197;28;20052;-52
2021/12/12 12:12:46;;;;;;;62.50;19.40;;;8.90;99.90;;;;;;5100818;28;20499;-52
2021/12/12 12:15:35;;;;;;;48.83;18.50;;;8.90;99.90;;;;;;5099524;28;20052;-53
2021/12/12 12:18:16;;;;;;;53.88;18.33;;;8.80;99.90;;;;;;5100148;28;20104;-50
2021/12/12 12:21:09;;;;;;;47.22;17.98;;;8.90;99.90;;;;;;5099319;28;20036;-50
2021/12/12 12:24:25;;;;;;;43.03;16.58;;;8.90;99.90;;;;;;5099507;28;20079;-52
2021/12/12 12:27:12;;;;;;;61.35;19.58;;;8.90;99.90;;;;;;5037372;28;20041;-55
2021/12/12 12:30:15;;;;;;;55.15;18.77;;;8.80;99.90;;;;;;5100159;28;20090;-52
2021/12/12 12:33:05;;;;;;;60.00;17.98;;;8.70;99.90;;;;;;5099536;28;20523;-50
2021/12/12 12:35:39;;;;;;;63.22;18.88;;;8.80;99.90;;;;;;5099734;28;20143;-50
2021/12/12 12:38:42;;;;;;;58.10;19.23;;;8.80;99.90;;;;;;5099874;28;20063;-54
2021/12/12 12:41:33;;;;;;;61.47;18.80;;;8.80;99.90;;;;;;5099175;28;20048;-54
2021/12/12 12:44:23;;;;;;;66.45;19.20;;;8.70;99.90;;;;;;5099138;28;20127;-53
2021/12/12 12:47:27;;;;;;;54.35;19.20;;;8.80;99.90;;;;;;5099692;28;20040;-54
2021/12/12 12:50:30;;;;;;;68.32;19.65;;;8.80;99.90;;;;;;5098396;28;20130;-51
2021/12/12 12:53:08;;;;;;;57.78;18.10;;;8.80;99.90;;;;;;5059070;28;20067;-53
2021/12/12 12:55:57;;;;;;;64.18;19.05;;;8.80;99.90;;;;;;5059289;28;20206;-52
2021/12/12 12:58:23;;;;;;;68.45;18.20;;;8.70;99.90;;;;;;5057193;28;20143;-53
2021/12/12 13:00:53;;;;;;;60.42;17.95;;;8.80;99.90;;;;;;5059032;28;20049;-53
2021/12/12 13:03:47;;;;;;;47.47;16.35;;;8.80;99.90;;;;;;5057956;28;20096;-52
2021/12/12 13:06:50;;;;;;;59.28;16.85;;;8.80;99.90;;;;;;5058426;28;20045;-52
2021/12/12 13:09:38;;;;;;;59.28;18.42;;;8.80;99.90;;;;;;5058813;28;20075;-53
2021/12/12 13:12:20;;;;;;;68.82;17.00;;;8.90;99.90;;;;;;5059158;28;20102;-53
2021/12/12 13:14:57;;;;;;;57.33;16.10;;;8.80;99.90;;;;;;5058313;28;20053;-53
2021/12/12 13:17:43;;;;;;;58.45;16.83;;;8.90;99.90;;;;;;5058107;28;20287;-55
2021/12/12 13:20:34;;;;;;;53.80;16.50;;;8.80;99.90;;;;;;5058784;28;20095;-51
2021/12/12 13:23:15;;;;;;;48.22;15.90;;;8.90;99.90;;;;;;5058482;28;20060;-54
2021/12/12 13:25:52;;;;;;;52.25;16.30;;;8.90;99.90;;;;;;5058875;28;20041;-53
2021/12/12 13:28:20;;;;;;;40.55;14.70;;;9.00;99.90;;;;;;5058246;28;20083;-54